aviador You're here:

ETSI Decoded Metar

INGOLSTADT in GERMANY
Report Time2017-12-16 10:20:00
UTC Time2017-12-16 10:47:14
Flight Rules mvfr MVFR
Wind270° at 10 kt
W.Decomp.*RWY 25: 9.5 kt HW 3.1 kt RCW
W.Rank270° ranks 3
Current wind is above 270° avg. (8.0)
Visibility9999 m
Phenomena:N/A
Clouds:Few 015 Hf
Broken 018 Hf
Expected CloudBase > 800 ft AGL from Temp-Dew spread
Ceiling1,800 ft
Temp02°C (ISA -11)
Dew Point00°C (87% RH)
AAT-3.6°C
QNH1007 hPa
Density Alt223 ft
Elevation1,214 ft
Report Wrong Elevation
Raw Report
METAR ETSI 161020Z 27010KT 9999 FEW015 BKN018 02/M00 Q1007 WHT=

Extra information for ETSI:More info

Metar Taf Metar & Taf Last 4 Metars F.Rules Stats Wind Profile Meteogram Temp Stats Airport Information Weather charts Add Link Nearby VenuesMetar ALERT Operation Metar Decoded Social comments